Time;durP1;ratioP1;P1;durP2;ratioP2;P2;SDS_P1;SDS_P2;PMS_P1;PMS_P2;Temp;Humidity;BMP_temperature;BMP_pressure;BME280_temperature;BME280_humidity;BME280_pressure;Samples;Min_cycle;Max_cycle;Signal;HPM_P1;HPM_P2
2022/08/20 00:01:08;;;;;;;6.72;4.20;;;;;;;26.26;50.95;94476.34;5132228;27;20180;-74
2022/08/20 00:03:38;;;;;;;6.72;4.50;;;;;;;26.24;50.75;94460.44;5131930;27;20200;-74
2022/08/20 00:06:13;;;;;;;6.47;3.97;;;;;;;26.19;51.14;94446.31;5132236;27;20172;-74
2022/08/20 00:08:40;;;;;;;8.98;4.72;;;;;;;26.08;50.94;94436.94;5131945;27;20638;-74
2022/08/20 00:11:08;;;;;;;5.90;4.45;;;;;;;26.19;51.66;94463.31;5131701;27;20628;-74
2022/08/20 00:13:46;;;;;;;8.20;4.20;;;;;;;26.09;51.59;94474.41;5126713;27;20180;-74
2022/08/20 00:16:13;;;;;;;6.05;3.70;;;;;;;26.10;51.80;94473.31;5111201;28;20747;-74
2022/08/20 00:18:40;;;;;;;5.13;4.00;;;;;;;26.18;51.66;94482.50;5116681;27;20172;-74
2022/08/20 00:21:08;;;;;;;8.25;4.40;;;;;;;26.14;51.56;94476.16;5131309;27;20221;-74
2022/08/20 00:23:42;;;;;;;4.65;4.15;;;;;;;26.10;51.77;94475.22;5131949;27;20180;-74
2022/08/20 00:26:09;;;;;;;5.88;4.47;;;;;;;26.05;52.38;94473.44;5131817;27;20217;-74
2022/08/20 00:28:35;;;;;;;6.95;4.90;;;;;;;25.91;53.17;94468.22;5131925;27;20631;-74
2022/08/20 00:31:03;;;;;;;8.77;5.18;;;;;;;25.78;53.80;94474.53;5131939;27;20224;-74
2022/08/20 00:33:31;;;;;;;10.68;5.43;;;;;;;25.61;54.46;94469.13;5131681;27;20171;-74
2022/08/20 00:35:56;;;;;;;11.73;5.93;;;;;;;25.32;55.55;94460.78;5117310;27;20296;-74
2022/08/20 00:38:23;;;;;;;9.18;5.90;;;;;;;24.94;56.56;94452.41;5111129;28;20177;-74
2022/08/20 00:40:53;;;;;;;9.13;5.80;;;;;;;24.78;57.72;94474.31;5114987;28;20194;-74
2022/08/20 00:43:30;;;;;;;8.00;5.07;;;;;;;24.46;58.91;94469.22;5131346;27;20172;-73
2022/08/20 00:45:58;;;;;;;11.50;5.15;;;;;;;24.23;58.87;94441.53;5131566;28;20196;-74
2022/08/20 00:48:29;;;;;;;6.15;4.88;;;;;;;24.15;59.72;94471.03;5131893;28;20269;-74
2022/08/20 00:51:01;;;;;;;12.00;5.55;;;;;;;24.08;59.84;94468.75;5131383;28;20172;-74
2022/08/20 00:53:28;;;;;;;8.65;5.25;;;;;;;24.20;59.94;94458.25;5112964;28;20529;-74
2022/08/20 00:55:54;;;;;;;9.07;5.00;;;;;;;24.18;59.74;94447.00;5131198;28;20736;-74
2022/08/20 00:58:20;;;;;;;9.63;5.30;;;;;;;24.25;59.55;94449.28;5131319;28;20245;-74
2022/08/20 01:00:48;;;;;;;7.70;5.25;;;;;;;24.18;59.83;94456.97;5131441;28;20172;-74
2022/08/20 01:03:19;;;;;;;7.68;5.32;;;;;;;24.19;59.77;94451.28;5113008;28;20260;-74
2022/08/20 01:05:47;;;;;;;9.95;5.70;;;;;;;24.24;59.77;94443.13;5131357;28;20165;-74
2022/08/20 01:08:15;;;;;;;8.10;5.15;;;;;;;24.12;60.46;94439.38;5113458;28;20180;-74
2022/08/20 01:10:43;;;;;;;9.95;5.22;;;;;;;24.09;60.48;94440.78;5131259;28;20572;-74
2022/08/20 01:13:13;;;;;;;7.40;5.25;;;;;;;24.07;60.41;94440.28;5131112;28;20232;-74
2022/08/20 01:15:44;;;;;;;7.55;5.43;;;;;;;24.09;60.17;94435.38;5131217;28;20229;-74
2022/08/20 01:18:13;;;;;;;8.10;5.13;;;;;;;23.80;61.50;94435.00;5131489;28;20180;-74
2022/08/20 01:20:53;;;;;;;8.40;5.35;;;;;;;23.56;62.01;94417.25;5112915;28;20181;-74
2022/08/20 01:23:44;;;;;;;8.85;5.03;;;;;;;23.65;61.97;94433.44;5131036;28;20168;-74
2022/08/20 01:26:31;;;;;;;8.85;5.32;;;;;;;23.60;62.65;94429.00;5131179;28;20251;-74
2022/08/20 01:29:01;;;;;;;6.32;4.93;;;;;;;23.50;62.29;94407.72;5131077;28;20267;-74
2022/08/20 01:31:30;;;;;;;8.25;5.05;;;;;;;23.67;61.60;94424.00;5131105;28;20204;-74
2022/08/20 01:33:57;;;;;;;7.00;5.38;;;;;;;23.79;61.70;94428.81;5133473;27;20268;-73
2022/08/20 01:36:29;;;;;;;5.82;5.18;;;;;;;23.81;60.94;94415.88;5135118;27;20667;-74
2022/08/20 01:38:55;;;;;;;7.35;5.22;;;;;;;23.68;61.63;94416.72;5134881;27;20176;-74
2022/08/20 01:41:29;;;;;;;8.25;5.00;;;;;;;23.69;62.03;94432.56;5116506;27;20176;-74
2022/08/20 01:43:56;;;;;;;6.28;4.97;;;;;;;23.77;61.28;94422.19;5134940;27;20193;-74
2022/08/20 01:46:24;;;;;;;13.20;5.05;;;;;;;23.90;60.35;94424.00;5134682;27;20180;-74
2022/08/20 01:48:52;;;;;;;5.35;4.53;;;;;;;23.96;60.39;94412.81;5134752;27;20646;-74
2022/08/20 01:51:22;;;;;;;7.25;4.55;;;;;;;24.12;59.51;94413.28;5134623;27;20653;-74
2022/08/20 01:53:50;;;;;;;8.57;5.32;;;;;;;24.26;58.59;94413.22;5134767;27;20179;-74
2022/08/20 01:56:20;;;;;;;8.90;4.65;;;;;;;24.42;58.39;94428.66;5134462;27;20197;-74
2022/08/20 01:58:49;;;;;;;7.90;4.63;;;;;;;24.52;57.88;94421.44;5134479;27;20216;-74
2022/08/20 02:01:52;;;;;;;8.98;4.55;;;;;;;24.52;57.68;94416.84;5131752;27;20192;-74
2022/08/20 02:04:18;;;;;;;11.02;5.22;;;;;;;24.38;58.96;94422.34;5100384;28;20188;-74
2022/08/20 02:06:52;;;;;;;10.25;5.72;;;;;;;23.86;60.31;94383.50;5113957;28;20535;-74
2022/08/20 02:09:18;;;;;;;16.10;5.70;;;;;;;23.91;60.42;94404.09;5113754;28;20549;-74
2022/08/20 02:11:46;;;;;;;12.82;5.85;;;;;;;23.95;61.04;94418.53;5132580;27;20179;-74
2022/08/20 02:14:12;;;;;;;8.05;5.43;;;;;;;23.95;61.02;94413.16;5115661;27;20521;-74
2022/08/20 02:16:40;;;;;;;7.80;4.90;;;;;;;23.82;60.84;94413.97;5134407;27;20702;-74
2022/08/20 02:19:10;;;;;;;10.75;5.57;;;;;;;23.73;61.50;94413.91;5134206;27;20236;-74
2022/08/20 02:21:40;;;;;;;7.95;5.20;;;;;;;23.72;62.01;94414.22;5133778;27;20715;-74
2022/08/20 02:24:06;;;;;;;7.50;5.85;;;;;;;23.69;61.53;94413.75;5133789;27;20604;-74
2022/08/20 02:26:32;;;;;;;8.80;5.75;;;;;;;23.76;61.86;94404.44;5133776;27;20719;-74
2022/08/20 02:28:58;;;;;;;10.30;5.20;;;;;;;23.67;62.36;94407.06;5133628;27;20200;-74
2022/08/20 02:31:24;;;;;;;10.57;6.05;;;;;;;23.53;62.57;94414.34;5115653;27;20173;-74
2022/08/20 02:33:50;;;;;;;8.32;5.40;;;;;;;23.53;63.41;94414.34;5115443;27;20172;-74
2022/08/20 02:36:18;;;;;;;8.27;5.95;;;;;;;23.36;63.25;94419.53;5133663;27;20208;-74
2022/08/20 02:38:44;;;;;;;11.98;5.32;;;;;;;22.98;64.77;94417.09;5133564;27;20173;-74
2022/08/20 02:41:11;;;;;;;11.02;5.35;;;;;;;22.80;65.26;94416.09;5133615;27;20176;-74
2022/08/20 02:43:37;;;;;;;7.32;5.80;;;;;;;22.76;65.56;94409.72;5114730;27;20169;-74
2022/08/20 02:46:03;;;;;;;10.38;5.90;;;;;;;22.84;65.76;94417.09;5133764;27;20254;-74
2022/08/20 02:48:30;;;;;;;7.53;5.40;;;;;;;22.78;65.66;94407.53;5122658;27;20173;-74
2022/08/20 02:50:59;;;;;;;10.30;5.75;;;;;;;22.97;65.49;94430.81;5117506;27;20267;-74
2022/08/20 02:53:26;;;;;;;8.85;5.75;;;;;;;22.99;65.23;94421.38;5133398;27;20176;-74
2022/08/20 02:55:51;;;;;;;6.45;5.22;;;;;;;22.88;65.74;94428.84;5133211;27;20200;-74
2022/08/20 02:58:18;;;;;;;6.60;5.22;;;;;;;22.82;65.63;94419.28;5133427;27;20724;-74
2022/08/20 03:00:44;;;;;;;8.65;5.60;;;;;;;22.92;65.91;94434.38;5119098;27;20176;-74
2022/08/20 03:03:10;;;;;;;8.50;5.90;;;;;;;22.78;65.96;94420.97;5113080;28;20885;-74
2022/08/20 03:05:38;;;;;;;8.70;5.55;;;;;;;22.92;65.90;94435.19;5112830;28;20236;-74
2022/08/20 03:08:05;;;;;;;10.68;6.03;;;;;;;22.72;66.19;94424.81;5112886;28;20263;-74
2022/08/20 03:10:33;;;;;;;10.65;6.10;;;;;;;22.83;66.42;94430.84;5119073;27;20173;-74
2022/08/20 03:13:01;;;;;;;7.38;5.32;;;;;;;22.82;66.17;94431.91;5133202;27;20180;-74
2022/08/20 03:15:31;;;;;;;10.27;5.50;;;;;;;22.71;66.37;94409.00;5114629;27;20690;-74
2022/08/20 03:17:57;;;;;;;9.68;5.90;;;;;;;22.81;65.96;94428.44;5114600;27;20172;-74
2022/08/20 03:20:24;;;;;;;9.98;5.30;;;;;;;22.56;66.20;94405.53;5132937;27;20191;-74
2022/08/20 03:22:50;;;;;;;7.50;5.65;;;;;;;22.40;66.32;94401.50;5132735;27;20173;-74
2022/08/20 03:25:16;;;;;;;16.20;6.70;;;;;;;22.58;67.11;94442.78;5132730;27;20213;-74
2022/08/20 03:27:42;;;;;;;9.52;6.63;;;;;;;22.61;66.89;94433.34;5133068;27;20247;-74
2022/08/20 03:30:10;;;;;;;10.27;5.70;;;;;;;22.67;66.50;94435.63;5132922;27;20615;-74
2022/08/20 03:32:36;;;;;;;8.85;6.30;;;;;;;22.64;66.45;94446.19;5123515;27;20241;-74
2022/08/20 03:35:06;;;;;;;13.00;5.65;;;;;;;22.54;67.10;94431.84;5132748;27;20224;-74
2022/08/20 03:37:34;;;;;;;7.72;5.68;;;;;;;22.53;67.49;94448.25;5132561;27;20173;-73
2022/08/20 03:39:59;;;;;;;11.80;6.30;;;;;;;22.42;67.64;94422.69;5132484;27;20179;-74
2022/08/20 03:42:26;;;;;;;9.30;5.60;;;;;;;22.55;67.47;94444.19;5129696;27;20251;-74
2022/08/20 03:44:52;;;;;;;14.38;7.50;;;;;;;22.02;68.37;94405.41;5111934;28;20547;-74
2022/08/20 03:47:19;;;;;;;11.55;6.72;;;;;;;22.24;68.54;94439.63;5111891;28;20177;-74
2022/08/20 03:49:45;;;;;;;13.52;7.25;;;;;;;22.29;68.85;94444.91;5131464;27;20625;-74
2022/08/20 03:52:11;;;;;;;9.57;6.60;;;;;;;22.36;69.20;94453.38;5132743;27;20176;-74
2022/08/20 03:54:36;;;;;;;13.73;7.43;;;;;;;22.46;68.43;94454.00;5132373;27;20200;-74
2022/08/20 03:57:02;;;;;;;12.75;7.53;;;;;;;22.54;68.26;94460.56;5131319;27;20528;-74
2022/08/20 03:59:31;;;;;;;12.70;7.03;;;;;;;22.46;68.27;94459.38;5119164;27;20265;-74
2022/08/20 04:01:58;;;;;;;10.60;7.00;;;;;;;22.14;69.20;94452.09;5111453;28;20903;-74
2022/08/20 04:04:25;;;;;;;14.23;7.45;;;;;;;22.04;69.33;94440.75;5111519;28;20165;-74
2022/08/20 04:06:50;;;;;;;14.70;6.78;;;;;;;22.26;69.10;94453.53;5111466;28;20597;-73
2022/08/20 04:09:16;;;;;;;15.88;11.18;;;;;;;22.36;69.20;94450.69;5111127;28;20181;-73
2022/08/20 04:11:42;;;;;;;18.20;11.25;;;;;;;22.48;68.50;94462.56;5092995;28;20177;-73
2022/08/20 04:14:09;;;;;;;36.80;11.95;;;;;;;22.63;68.27;94461.50;5111138;28;20643;-73
2022/08/20 04:16:36;;;;;;;17.75;9.57;;;;;;;22.77;67.92;94464.22;5110932;28;20603;-74
2022/08/20 04:19:02;;;;;;;12.85;8.57;;;;;;;22.92;67.61;94464.72;5124897;27;20176;-73
2022/08/20 04:21:30;;;;;;;11.75;7.63;;;;;;;23.03;67.12;94462.63;5131736;27;20226;-72
2022/08/20 04:23:56;;;;;;;11.63;6.53;;;;;;;23.04;65.99;94447.31;5113210;27;20176;-73
2022/08/20 04:26:21;;;;;;;8.05;6.55;;;;;;;23.28;65.84;94472.09;5131332;27;20164;-72
2022/08/20 04:28:48;;;;;;;13.90;7.20;;;;;;;23.42;65.19;94467.50;5131338;27;20538;-73
2022/08/20 04:31:16;;;;;;;12.13;7.63;;;;;;;23.52;64.59;94466.53;5131428;27;20183;-72
2022/08/20 04:33:42;;;;;;;12.70;7.53;;;;;;;23.71;64.19;94464.50;5131224;27;20719;-73
2022/08/20 04:36:08;;;;;;;12.38;6.68;;;;;;;23.91;63.50;94463.25;5111556;28;20287;-73
2022/08/20 04:38:34;;;;;;;13.45;7.72;;;;;;;24.13;63.41;94463.25;5110679;28;20251;-73
2022/08/20 04:40:59;;;;;;;21.20;10.55;;;;;;;24.39;62.91;94466.94;5110672;28;20172;-73
2022/08/20 04:43:36;;;;;;;17.42;9.23;;;;;;;24.63;61.39;94466.66;5110631;28;20668;-73
2022/08/20 04:46:08;;;;;;;16.35;8.45;;;;;;;24.92;61.04;94476.94;5110463;28;20172;-73
2022/08/20 04:48:37;;;;;;;13.27;8.05;;;;;;;25.30;59.78;94479.97;5110829;28;20191;-73
2022/08/20 04:51:04;;;;;;;14.63;8.50;;;;;;;25.70;58.23;94477.22;5110800;28;20173;-73
2022/08/20 04:53:29;;;;;;;22.55;9.63;;;;;;;25.81;57.22;94456.94;5110336;28;20177;-73
2022/08/20 04:56:00;;;;;;;23.05;11.70;;;;;;;26.26;56.09;94468.25;5110391;28;20200;-71
2022/08/20 04:58:33;;;;;;;21.27;9.20;;;;;;;26.46;54.90;94466.81;5110285;28;20604;-72
2022/08/20 05:01:02;;;;;;;11.10;7.65;;;;;;;26.81;54.60;94462.13;5110460;28;20255;-72
2022/08/20 05:03:29;;;;;;;21.23;12.68;;;;;;;27.25;52.36;94467.06;5110484;28;20173;-72
2022/08/20 05:05:55;;;;;;;14.68;8.30;;;;;;;27.76;52.74;94476.06;5110447;28;20200;-72
2022/08/20 05:08:22;;;;;;;14.77;7.63;;;;;;;28.25;50.69;94481.78;5114021;28;20179;-73
2022/08/20 05:10:49;;;;;;;12.68;6.40;;;;;;;28.66;50.51;94484.44;5114903;28;20177;-73
2022/08/20 05:13:15;;;;;;;15.55;9.40;;;;;;;29.05;49.10;94485.03;5114892;28;20602;-73
2022/08/20 05:15:40;;;;;;;12.75;7.57;;;;;;;29.44;48.21;94478.19;5114701;28;20193;-73
2022/08/20 05:18:07;;;;;;;14.27;6.90;;;;;;;29.82;46.98;94480.56;5114761;28;20658;-73
2022/08/20 05:20:39;;;;;;;18.67;6.90;;;;;;;30.09;45.84;94479.84;5114714;28;20650;-73
2022/08/20 05:23:08;;;;;;;9.65;6.55;;;;;;;30.41;44.52;94463.69;5114753;28;20378;-72
2022/08/20 05:25:34;;;;;;;11.00;6.60;;;;;;;30.81;44.14;94475.28;5114578;28;20165;-73
2022/08/20 05:28:22;;;;;;;15.93;7.10;;;;;;;31.17;43.65;94468.09;5096357;28;20189;-74
2022/08/20 05:30:48;;;;;;;12.13;6.43;;;;;;;31.55;42.60;94475.63;5096332;28;20234;-74
2022/08/20 05:33:18;;;;;;;11.13;6.78;;;;;;;31.77;42.36;94477.72;5114554;28;20172;-74
2022/08/20 05:35:45;;;;;;;10.10;6.20;;;;;;;32.10;41.70;94453.56;5097136;28;20744;-74
2022/08/20 05:38:14;;;;;;;12.05;6.93;;;;;;;32.58;41.93;94463.16;5114567;28;20636;-74
2022/08/20 05:40:41;;;;;;;9.05;6.45;;;;;;;33.07;41.00;94468.00;5114617;28;20173;-73
2022/08/20 05:43:07;;;;;;;9.23;5.93;;;;;;;33.35;39.07;94448.63;5114601;28;20279;-74
2022/08/20 05:45:37;;;;;;;66.75;12.88;;;;;;;33.42;38.56;94467.03;5114368;28;20176;-73
2022/08/20 05:48:06;;;;;;;61.08;13.30;;;;;;;33.69;38.17;94476.84;5114327;28;20199;-74
2022/08/20 05:50:32;;;;;;;674.55;138.70;;;;;;;34.05;38.01;94479.00;5114377;28;20173;-74
2022/08/20 05:53:00;;;;;;;8.07;5.93;;;;;;;34.37;37.64;94473.19;5114010;28;20177;-73
2022/08/20 05:55:27;;;;;;;10.38;5.82;;;;;;;34.94;36.93;94473.88;5113759;28;20628;-74
2022/08/20 05:57:57;;;;;;;16.10;6.45;;;;;;;35.44;36.70;94465.00;5113756;27;20576;-74
2022/08/20 06:00:22;;;;;;;8.65;5.38;;;;;;;35.71;34.87;94440.16;5113874;28;20181;-76
2022/08/20 06:05:33;;;;;;;8.95;5.95;;;;;;;36.21;33.97;94444.81;5127009;27;20214;-78
2022/08/20 06:07:58;;;;;;;7.90;5.85;;;;;;;36.20;34.03;94446.00;5124876;27;20176;-81
2022/08/20 06:10:24;;;;;;;10.65;5.35;;;;;;;36.29;34.55;94457.41;5114436;28;20173;-75
2022/08/20 06:12:52;;;;;;;11.77;5.82;;;;;;;36.19;34.94;94463.63;5096002;28;20185;-76
2022/08/20 06:15:18;;;;;;;9.60;5.10;;;;;;;36.26;34.46;94465.59;5114126;28;20193;-76
2022/08/20 06:17:43;;;;;;;12.13;6.90;;;;;;;36.26;33.90;94460.91;5114247;28;20177;-76
2022/08/20 06:20:10;;;;;;;14.85;7.40;;;;;;;36.29;34.08;94467.59;5113286;28;20256;-76
2022/08/20 06:22:36;;;;;;;13.90;6.47;;;;;;;35.76;34.24;94465.28;5121127;27;20200;-76
2022/08/20 06:25:03;;;;;;;13.57;6.47;;;;;;;35.60;35.16;94456.50;5115628;27;20173;-76
2022/08/20 06:27:29;;;;;;;13.13;6.07;;;;;;;35.61;35.63;94463.56;5117470;27;20224;-78
2022/08/20 06:29:54;;;;;;;10.55;6.03;;;;;;;35.43;34.75;94457.94;5126529;27;20168;-78
2022/08/20 06:32:23;;;;;;;14.20;6.03;;;;;;;34.92;35.44;94462.53;5134954;27;20251;-78
2022/08/20 06:34:50;;;;;;;10.52;5.72;;;;;;;34.57;36.76;94463.66;5126052;27;20284;-78
2022/08/20 06:37:18;;;;;;;14.48;6.82;;;;;;;34.20;36.93;94452.63;5129404;27;20169;-78
2022/08/20 06:39:43;;;;;;;11.05;6.72;;;;;;;33.81;37.95;94434.91;5116735;27;20177;-78
2022/08/20 06:42:09;;;;;;;12.77;5.60;;;;;;;33.80;37.46;94453.25;5125304;27;20180;-77
2022/08/20 06:44:35;;;;;;;7.25;5.10;;;;;;;33.25;38.28;94447.28;5124073;27;20177;-77
2022/08/20 06:47:03;;;;;;;13.60;6.70;;;;;;;32.84;39.95;94453.53;5123517;27;20203;-77
2022/08/20 06:49:28;;;;;;;7.43;5.80;;;;;;;32.92;39.53;94447.84;5123843;27;20157;-77
2022/08/20 06:51:54;;;;;;;9.45;5.82;;;;;;;33.03;39.30;94437.13;5123383;27;20173;-77
2022/08/20 06:54:19;;;;;;;10.95;5.68;;;;;;;33.01;39.07;94447.63;5125228;27;20176;-77
2022/08/20 06:56:45;;;;;;;13.93;6.18;;;;;;;32.96;39.57;94448.69;5123288;27;20201;-77
2022/08/20 06:59:11;;;;;;;13.48;5.95;;;;;;;33.24;39.42;94444.91;5121125;27;20228;-78
2022/08/20 07:01:37;;;;;;;10.77;6.18;;;;;;;33.32;39.25;94441.16;5107388;27;20199;-77
2022/08/20 07:04:04;;;;;;;9.73;5.93;;;;;;;33.36;38.32;94439.28;5124831;27;20160;-77
2022/08/20 07:06:29;;;;;;;11.27;5.30;;;;;;;33.47;39.38;94436.72;5123577;27;20219;-77
2022/08/20 07:08:55;;;;;;;7.65;5.70;;;;;;;33.56;38.94;94437.22;5121329;27;20176;-77
2022/08/20 07:11:21;;;;;;;8.07;5.93;;;;;;;33.46;38.32;94438.66;5112051;27;20263;-77
2022/08/20 07:13:48;;;;;;;10.43;5.63;;;;;;;33.13;38.83;94413.88;5126550;27;20200;-80
2022/08/20 07:16:14;;;;;;;15.63;6.55;;;;;;;32.32;40.44;94386.72;5120967;27;20192;-81
2022/08/20 07:18:39;;;;;;;13.95;5.40;;;;;;;32.21;40.37;94388.44;5127016;27;20208;-81
2022/08/20 07:21:05;;;;;;;8.00;5.90;;;;;;;32.69;41.19;94427.97;5125365;27;20200;-79
2022/08/20 07:23:30;;;;;;;12.45;5.43;;;;;;;33.06;40.07;94427.41;5123054;27;20169;-80
2022/08/20 07:25:56;;;;;;;12.23;6.38;;;;;;;32.33;39.96;94423.72;5121684;27;20261;-79
2022/08/20 07:28:24;;;;;;;9.32;5.18;;;;;;;32.05;41.24;94399.38;5123354;27;20173;-79
2022/08/20 07:33:36;;;;;;;10.35;5.47;;;;;;;31.95;41.37;94410.03;5121993;27;20278;-78
2022/08/20 07:36:03;;;;;;;13.80;5.60;;;;;;;32.27;41.00;94416.16;5128754;27;20192;-80
2022/08/20 07:38:29;;;;;;;14.10;6.50;;;;;;;32.30;41.17;94418.97;5121955;27;20173;-81
2022/08/20 07:40:58;;;;;;;8.48;5.63;;;;;;;32.55;40.85;94417.53;5128617;27;20568;-79
2022/08/20 07:43:25;;;;;;;10.20;5.30;;;;;;;32.65;41.06;94418.09;5129192;27;20247;-81
2022/08/20 07:45:55;;;;;;;11.82;6.28;;;;;;;32.67;40.71;94416.59;5134085;27;20224;-79
2022/08/20 07:48:24;;;;;;;12.18;5.97;;;;;;;32.71;40.26;94403.03;5127305;27;20548;-78
2022/08/20 07:50:53;;;;;;;8.43;5.57;;;;;;;32.27;41.52;94416.97;5124300;27;20185;-78
2022/08/20 07:53:19;;;;;;;25.45;6.00;;;;;;;32.42;44.04;94412.59;5122513;27;20173;-79
2022/08/20 07:55:44;;;;;;;8.20;5.68;;;;;;;32.64;41.48;94397.41;5122456;27;20196;-79
2022/08/20 07:58:15;;;;;;;17.02;6.53;;;;;;;32.76;43.50;94408.19;5117090;27;20217;-84
2022/08/20 08:00:40;;;;;;;11.90;6.05;;;;;;;33.08;43.03;94417.72;5131538;27;20186;-78
2022/08/20 08:03:06;;;;;;;11.77;6.03;;;;;;;33.32;41.19;94419.31;5133271;27;20160;-78
2022/08/20 08:05:34;;;;;;;66.88;10.98;;;;;;;33.15;40.00;94417.03;5125812;27;20176;-81
2022/08/20 08:08:00;;;;;;;13.40;5.93;;;;;;;33.08;41.18;94409.53;5103229;27;20575;-80
2022/08/20 08:10:26;;;;;;;9.77;5.80;;;;;;;33.17;40.94;94418.28;5123073;27;20180;-79
2022/08/20 08:12:54;;;;;;;10.57;6.15;;;;;;;32.81;41.45;94410.63;5126405;27;20181;-79
2022/08/20 08:15:31;;;;;;;9.82;6.75;;;;;;;32.40;41.70;94382.19;5127044;27;20199;-79
2022/08/20 08:18:06;;;;;;;10.25;6.50;;;;;;;32.35;42.23;94407.78;5121780;27;20199;-79
2022/08/20 08:20:39;;;;;;;13.98;6.97;;;;;;;32.33;42.95;94407.38;5124836;27;20236;-79
2022/08/20 08:23:06;;;;;;;13.77;6.03;;;;;;;32.57;42.60;94400.81;5126440;27;20172;-78
2022/08/20 08:25:32;;;;;;;12.25;6.35;;;;;;;32.83;41.99;94389.22;5118547;27;20185;-80
2022/08/20 08:27:59;;;;;;;8.77;5.85;;;;;;;32.61;41.25;94380.63;5119330;27;20246;-82
2022/08/20 08:30:25;;;;;;;12.75;6.53;;;;;;;32.89;41.12;94399.47;5118254;27;20193;-80
2022/08/20 08:35:37;;;;;;;8.68;6.10;;;;;;;33.11;40.11;94400.63;5126828;27;20251;-80
2022/08/20 08:38:03;;;;;;;11.77;6.40;;;;;;;32.59;40.44;94382.94;5121609;27;20169;-80
2022/08/20 08:40:32;;;;;;;13.05;6.45;;;;;;;32.53;41.47;94367.22;5121119;27;20183;-81
2022/08/20 08:43:01;;;;;;;8.50;5.60;;;;;;;32.82;40.87;94384.91;5116684;27;20169;-80
2022/08/20 08:45:37;;;;;;;7.55;5.90;;;;;;;33.10;40.35;94390.88;5112350;28;20920;-80
2022/08/20 08:48:03;;;;;;;9.65;6.03;;;;;;;33.08;40.30;94365.88;5121490;28;20199;-79
2022/08/20 08:50:32;;;;;;;8.57;5.63;;;;;;;32.86;40.37;94380.31;5120779;28;20165;-79
2022/08/20 08:53:00;;;;;;;11.38;6.03;;;;;;;32.67;40.27;94355.81;5114682;28;20215;-79
2022/08/20 08:55:28;;;;;;;14.35;6.43;;;;;;;32.82;41.96;94374.81;5117358;28;20569;-79
2022/08/20 08:57:58;;;;;;;12.93;6.57;;;;;;;33.05;40.89;94363.88;5119246;28;20628;-77
2022/08/20 09:00:27;;;;;;;8.85;6.05;;;;;;;33.25;40.15;94370.84;5120463;28;20173;-78
2022/08/20 09:03:02;;;;;;;8.68;5.97;;;;;;;33.21;39.71;94370.00;5119147;28;20180;-80
2022/08/20 09:05:40;;;;;;;9.25;5.80;;;;;;;33.17;39.90;94343.78;5119187;28;20169;-80
2022/08/20 09:08:10;;;;;;;12.07;6.68;;;;;;;33.24;39.72;94346.66;5121348;28;20192;-80
2022/08/20 09:10:37;;;;;;;9.60;6.65;;;;;;;33.35;40.20;94336.69;5125807;28;20172;-80
2022/08/20 09:13:04;;;;;;;7.07;5.72;;;;;;;33.54;39.46;94352.97;5118320;28;20652;-80
2022/08/20 09:15:30;;;;;;;9.77;6.30;;;;;;;33.51;39.25;94353.69;5123223;28;20220;-79
2022/08/20 09:17:55;;;;;;;9.05;6.30;;;;;;;33.18;39.06;94369.94;5120622;28;20217;-78
2022/08/20 09:20:21;;;;;;;9.55;5.47;;;;;;;33.12;39.57;94366.75;5123342;28;20182;-79
2022/08/20 09:22:46;;;;;;;13.80;6.50;;;;;;;33.10;39.38;94360.84;5082995;28;20184;-79
2022/08/20 09:25:12;;;;;;;10.95;6.38;;;;;;;32.93;40.84;94326.69;5126962;28;20228;-79
2022/08/20 09:27:37;;;;;;;11.93;6.20;;;;;;;33.31;39.81;94357.69;5105149;28;20185;-79
2022/08/20 09:30:03;;;;;;;10.70;6.55;;;;;;;33.36;39.27;94342.94;5123701;28;20176;-79
2022/08/20 09:32:28;;;;;;;7.80;5.78;;;;;;;33.58;38.89;94358.47;5123295;28;20233;-81
2022/08/20 09:34:55;;;;;;;9.75;6.45;;;;;;;33.65;38.78;94359.34;5116548;28;20608;-79
2022/08/20 09:37:23;;;;;;;7.47;5.32;;;;;;;33.57;39.08;94348.69;5125017;28;20635;-77
2022/08/20 09:39:48;;;;;;;8.27;6.07;;;;;;;33.39;38.65;94337.50;5122415;28;20647;-78
2022/08/20 09:42:20;;;;;;;10.63;6.10;;;;;;;33.34;38.35;94344.09;5120489;28;20173;-79
2022/08/20 09:44:46;;;;;;;8.75;5.47;;;;;;;33.25;38.31;94338.09;5120043;28;20217;-79
2022/08/20 09:47:12;;;;;;;9.43;5.70;;;;;;;33.27;39.17;94327.63;5120044;28;20546;-79
2022/08/20 09:49:39;;;;;;;8.20;6.03;;;;;;;33.42;38.75;94330.53;5126925;28;20252;-79
2022/08/20 09:52:06;;;;;;;9.73;5.88;;;;;;;33.56;38.42;94336.19;5125176;28;20179;-79
2022/08/20 09:54:34;;;;;;;7.32;5.47;;;;;;;33.40;37.82;94338.31;5123025;27;20176;-79
2022/08/20 09:57:02;;;;;;;6.70;5.78;;;;;;;33.17;38.27;94327.41;5126714;27;20176;-79
2022/08/20 09:59:29;;;;;;;11.80;5.72;;;;;;;33.19;39.14;94331.38;5105204;27;20215;-78
2022/08/20 10:01:55;;;;;;;11.43;6.22;;;;;;;33.24;39.12;94342.00;5120602;27;20212;-78
2022/08/20 10:04:20;;;;;;;8.38;5.68;;;;;;;33.36;38.51;94341.00;5119042;27;20207;-78
2022/08/20 10:06:46;;;;;;;8.35;6.47;;;;;;;33.05;37.17;94328.41;5123408;27;20173;-78
2022/08/20 10:09:11;;;;;;;8.00;6.10;;;;;;;32.90;38.45;94337.53;5114984;28;20196;-78
2022/08/20 10:11:37;;;;;;;8.52;5.72;;;;;;;33.01;39.03;94338.47;5125373;27;20212;-78
2022/08/20 10:14:03;;;;;;;9.40;6.63;;;;;;;33.10;38.66;94343.69;5130713;27;20630;-78
2022/08/20 10:16:29;;;;;;;9.18;5.22;;;;;;;32.90;38.18;94338.31;5130563;27;20204;-78
2022/08/20 10:18:55;;;;;;;8.75;7.40;;;;;;;32.94;38.09;94328.25;5111670;27;20195;-78
2022/08/20 10:21:20;;;;;;;6.72;6.03;;;;;;;33.11;37.09;94334.34;5129514;27;20192;-79
2022/08/20 10:23:46;;;;;;;7.43;6.45;;;;;;;33.05;37.05;94313.97;5123709;27;20232;-78
2022/08/20 10:26:11;;;;;;;7.80;6.53;;;;;;;33.21;37.38;94328.28;5123078;27;20228;-79
2022/08/20 10:28:37;;;;;;;9.48;8.57;;;;;;;33.21;37.47;94329.06;5125086;27;20183;-78
2022/08/20 10:31:11;;;;;;;10.23;7.05;;;;;;;33.04;37.27;94309.69;5125941;27;20632;-78
2022/08/20 10:33:37;;;;;;;10.73;9.00;;;;;;;32.86;37.77;94321.13;5130039;27;20176;-78
2022/08/20 10:36:11;;;;;;;9.68;7.95;;;;;;;32.92;36.92;94308.72;5122421;27;20249;-78
2022/08/20 10:38:37;;;;;;;11.05;9.40;;;;;;;32.95;37.86;94318.13;5125514;27;20667;-78
2022/08/20 10:41:03;;;;;;;10.88;8.18;;;;;;;32.96;37.06;94308.78;5100376;28;20177;-79
2022/08/20 10:43:29;;;;;;;9.82;8.18;;;;;;;32.99;38.03;94299.88;5121630;27;20172;-79
2022/08/20 10:45:55;;;;;;;12.20;9.02;;;;;;;33.17;37.52;94305.59;5100549;28;20177;-78
2022/08/20 10:48:22;;;;;;;17.70;16.33;;;;;;;33.33;37.35;94300.78;5124829;27;20175;-76
2022/08/20 10:50:48;;;;;;;12.15;8.98;;;;;;;33.41;37.54;94307.91;5123729;27;20176;-78
2022/08/20 10:53:13;;;;;;;11.50;10.63;;;;;;;33.46;36.93;94309.56;5113152;27;20184;-79
2022/08/20 10:55:39;;;;;;;22.30;20.80;;;;;;;33.33;38.52;94300.78;5123372;27;20208;-79
2022/08/20 10:58:06;;;;;;;7.32;6.55;;;;;;;33.49;38.06;94297.88;5118008;27;20593;-78
2022/08/20 11:00:33;;;;;;;11.68;7.15;;;;;;;33.68;36.75;94295.00;5122832;27;20261;-76
2022/08/20 11:02:58;;;;;;;7.70;7.00;;;;;;;33.83;38.03;94302.25;5125141;27;20184;-76
2022/08/20 11:05:23;;;;;;;11.52;10.43;;;;;;;33.96;37.02;94298.13;5118518;27;20169;-75
2022/08/20 11:07:49;;;;;;;8.15;7.35;;;;;;;34.08;37.03;94280.66;5112053;28;20551;-75
2022/08/20 11:10:14;;;;;;;128.32;121.45;;;;;;;34.32;35.89;94293.06;5094215;28;20234;-76
2022/08/20 11:12:41;;;;;;;1650.43;999.90;;;;;;;34.34;35.15;94286.03;5112478;28;20177;-76
2022/08/20 11:15:07;;;;;;;1999.90;999.90;;;;;;;34.21;34.76;94284.72;5126050;27;20196;-75
2022/08/20 11:17:34;;;;;;;1999.90;999.90;;;;;;;34.03;36.15;94281.00;5111831;28;20247;-75
2022/08/20 11:20:01;;;;;;;1999.90;999.90;;;;;;;33.92;35.67;94269.97;5111878;28;20195;-76
2022/08/20 11:22:27;;;;;;;1999.90;999.90;;;;;;;34.04;35.97;94266.97;5112197;28;20173;-75
2022/08/20 11:24:53;;;;;;;1999.90;999.90;;;;;;;34.15;35.42;94274.50;5116325;27;20682;-75
2022/08/20 11:27:23;;;;;;;1999.90;999.90;;;;;;;34.04;35.74;94261.50;5117194;27;20627;-75
2022/08/20 11:29:49;;;;;;;1999.90;999.90;;;;;;;33.77;36.22;94237.38;5128749;27;20177;-76
2022/08/20 11:32:15;;;;;;;1999.90;999.90;;;;;;;33.81;35.96;94249.16;5127699;27;20538;-77
2022/08/20 11:34:41;;;;;;;1999.90;999.90;;;;;;;33.75;37.18;94245.94;5107697;27;20168;-76
2022/08/20 11:37:06;;;;;;;1935.00;999.90;;;;;;;33.67;36.47;94241.53;5120123;27;20177;-78